createdAt,value
2019-05-15T00:02:18.409Z,79.00
2019-05-15T00:04:49.224Z,79.50
2019-05-15T00:07:18.851Z,78.90
2019-05-15T00:09:49.135Z,78.90
2019-05-15T00:12:18.987Z,78.90
2019-05-15T00:14:49.108Z,80.00
2019-05-15T00:17:19.135Z,78.80
2019-05-15T00:19:48.727Z,78.70
2019-05-15T00:22:18.543Z,79.70
2019-05-15T00:24:48.871Z,79.30
2019-05-15T00:27:20.334Z,77.60
2019-05-15T00:29:50.781Z,78.10
2019-05-15T00:32:20.297Z,76.70
2019-05-15T00:34:49.580Z,76.70
2019-05-15T00:37:19.107Z,76.60
2019-05-15T00:39:48.712Z,76.60
2019-05-15T00:42:19.042Z,76.60
2019-05-15T00:44:49.325Z,76.90
2019-05-15T00:47:18.854Z,77.30
2019-05-15T00:49:48.762Z,77.60
2019-05-15T00:52:18.305Z,77.10
2019-05-15T00:54:48.451Z,77.10
2019-05-15T00:57:19.214Z,76.90
2019-05-15T00:59:48.957Z,76.80
2019-05-15T01:02:18.258Z,77.00
2019-05-15T01:04:47.983Z,77.30
2019-05-15T01:07:18.826Z,77.60
2019-05-15T01:09:48.706Z,76.30
2019-05-15T01:12:18.599Z,77.20
2019-05-15T01:14:48.934Z,77.80
2019-05-15T01:17:18.564Z,76.90
2019-05-15T01:19:48.345Z,77.80
2019-05-15T01:22:19.475Z,77.60
2019-05-15T01:24:48.934Z,77.00
2019-05-15T01:27:18.603Z,76.70
2019-05-15T01:29:49.293Z,76.50
2019-05-15T01:32:19.284Z,77.00
2019-05-15T01:34:49.184Z,76.80
2019-05-15T01:37:18.964Z,77.20
2019-05-15T01:39:48.626Z,78.30
2019-05-15T01:42:18.647Z,77.10
2019-05-15T01:44:48.542Z,76.70
2019-05-15T01:47:19.035Z,77.80
2019-05-15T01:49:49.055Z,77.40
2019-05-15T01:52:19.018Z,76.40
2019-05-15T01:54:48.892Z,76.20
2019-05-15T01:57:18.746Z,76.90
2019-05-15T01:59:57.162Z,76.60
2019-05-15T02:02:18.997Z,76.40
2019-05-15T02:04:48.806Z,75.80
2019-05-15T02:07:18.716Z,75.90
2019-05-15T02:09:49.177Z,76.10
2019-05-15T02:12:19.141Z,75.80
2019-05-15T02:14:48.704Z,75.90
2019-05-15T02:17:19.104Z,76.00
2019-05-15T02:19:49.450Z,77.10
2019-05-15T02:22:19.042Z,76.40
2019-05-15T02:24:48.385Z,76.50
2019-05-15T02:27:18.697Z,76.50
2019-05-15T02:29:49.323Z,76.40
2019-05-15T02:32:19.456Z,76.30
2019-05-15T02:34:49.978Z,76.30
2019-05-15T02:37:19.616Z,76.50
2019-05-15T02:39:49.735Z,76.30
2019-05-15T02:42:19.512Z,76.20
2019-05-15T02:44:50.038Z,76.50
2019-05-15T02:47:20.954Z,77.00
2019-05-15T02:49:50.253Z,76.80
2019-05-15T02:52:20.197Z,77.30
2019-05-15T02:54:49.991Z,77.70
2019-05-15T02:57:19.400Z,78.00
2019-05-15T02:59:49.837Z,79.40
2019-05-15T03:02:19.462Z,78.70
2019-05-15T03:04:49.252Z,78.90
2019-05-15T03:07:19.409Z,77.80
2019-05-15T03:09:49.735Z,77.50
2019-05-15T03:12:19.727Z,78.20
2019-05-15T03:14:49.614Z,78.60
2019-05-15T03:17:19.153Z,79.00
2019-05-15T03:19:49.841Z,79.70
2019-05-15T03:22:19.622Z,80.20
2019-05-15T03:24:50.212Z,79.90
2019-05-15T03:27:20.993Z,78.50
2019-05-15T03:29:50.294Z,77.90
2019-05-15T03:32:32.819Z,78.10
2019-05-15T03:34:56.398Z,77.80
2019-05-15T03:37:23.281Z,77.60
2019-05-15T03:39:52.723Z,78.00
2019-05-15T03:42:22.132Z,78.30
2019-05-15T03:44:51.416Z,78.30
2019-05-15T03:47:20.981Z,78.20
2019-05-15T03:49:50.415Z,78.10
2019-05-15T03:52:19.763Z,78.40
2019-05-15T03:54:49.693Z,79.90
2019-05-15T03:57:22.842Z,80.70
2019-05-15T03:59:50.086Z,81.20
2019-05-15T04:02:19.806Z,81.30
2019-05-15T04:04:50.085Z,81.10
2019-05-15T04:07:19.779Z,81.20
2019-05-15T04:09:49.589Z,80.70
2019-05-15T04:12:19.686Z,81.10
2019-05-15T04:14:49.994Z,81.50
2019-05-15T04:17:19.945Z,81.70
2019-05-15T04:19:49.794Z,79.70
2019-05-15T04:22:19.921Z,81.40
2019-05-15T04:24:51.215Z,81.20
2019-05-15T04:27:21.936Z,82.30
2019-05-15T04:29:51.491Z,81.80
2019-05-15T04:32:20.802Z,81.20
2019-05-15T04:34:50.087Z,80.50
2019-05-15T04:37:19.356Z,81.00
2019-05-15T04:39:49.206Z,81.10
2019-05-15T04:42:20.196Z,80.80
2019-05-15T04:44:49.969Z,80.00
2019-05-15T04:47:20.572Z,81.20
2019-05-15T04:49:50.552Z,80.40
2019-05-15T04:52:21.618Z,79.20
2019-05-15T04:54:51.240Z,79.60
2019-05-15T04:57:20.519Z,79.60
2019-05-15T04:59:49.891Z,79.00
2019-05-15T05:02:26.662Z,79.20
2019-05-15T05:04:50.194Z,78.80
2019-05-15T05:07:19.550Z,78.90
2019-05-15T05:09:49.058Z,79.10
2019-05-15T05:12:19.299Z,78.90
2019-05-15T05:14:48.940Z,78.90
2019-05-15T05:17:19.583Z,77.30
2019-05-15T05:19:51.353Z,77.40
2019-05-15T05:22:20.165Z,77.20
2019-05-15T05:24:49.919Z,76.70
2019-05-15T05:27:19.536Z,76.80
2019-05-15T05:29:48.809Z,76.20
2019-05-15T05:32:30.934Z,76.10
2019-05-15T05:34:49.078Z,74.90
2019-05-15T05:37:18.671Z,74.00
2019-05-15T05:39:49.047Z,73.80
2019-05-15T05:42:18.572Z,73.00
2019-05-15T05:44:48.878Z,71.90
2019-05-15T05:47:18.385Z,70.40
2019-05-15T05:49:48.962Z,68.60
2019-05-15T05:52:18.676Z,66.80
2019-05-15T05:54:49.152Z,66.30
2019-05-15T05:57:19.418Z,66.10
2019-05-15T05:59:49.116Z,65.60
2019-05-15T06:02:18.774Z,64.30
2019-05-15T06:04:48.062Z,63.30
2019-05-15T06:07:18.488Z,62.90
2019-05-15T06:09:49.138Z,63.90
2019-05-15T06:12:19.745Z,63.20
2019-05-15T06:14:49.012Z,63.30
2019-05-15T06:17:19.023Z,63.30
2019-05-15T06:19:48.747Z,63.80
2019-05-15T06:22:18.837Z,63.60
2019-05-15T06:24:48.584Z,62.80
2019-05-15T06:27:19.987Z,62.20
2019-05-15T06:29:48.940Z,60.90
2019-05-15T06:32:19.438Z,61.10
2019-05-15T06:34:50.122Z,59.80
2019-05-15T06:37:19.794Z,60.10
2019-05-15T06:39:49.177Z,58.00
2019-05-15T06:42:18.964Z,57.60
2019-05-15T06:44:49.340Z,59.10
2019-05-15T06:47:18.966Z,56.40
2019-05-15T06:49:48.731Z,56.60
2019-05-15T06:52:18.207Z,56.30
2019-05-15T06:54:48.522Z,55.80
2019-05-15T06:57:18.381Z,56.00
2019-05-15T06:59:48.443Z,55.30
2019-05-15T07:02:19.089Z,55.60
2019-05-15T07:04:48.901Z,53.90
2019-05-15T07:07:18.396Z,53.40
2019-05-15T07:09:48.662Z,53.90
2019-05-15T07:12:18.667Z,53.80
2019-05-15T07:14:48.718Z,54.00
2019-05-15T07:17:18.460Z,53.60
2019-05-15T07:19:48.533Z,53.30
2019-05-15T07:22:18.348Z,53.80
2019-05-15T07:24:47.893Z,53.10
2019-05-15T07:27:18.410Z,52.30
2019-05-15T07:29:48.751Z,52.20
2019-05-15T07:32:19.205Z,52.20
2019-05-15T07:34:49.708Z,50.40
2019-05-15T07:37:19.183Z,51.60
2019-05-15T07:39:48.921Z,51.20
2019-05-15T07:42:18.615Z,50.90
2019-05-15T07:44:48.321Z,51.00
2019-05-15T07:47:19.123Z,51.20
2019-05-15T07:49:49.179Z,50.40
2019-05-15T07:52:19.367Z,50.30
2019-05-15T07:54:48.960Z,49.90
2019-05-15T07:57:19.323Z,49.10
2019-05-15T07:59:49.062Z,49.00
2019-05-15T08:02:19.088Z,48.10
2019-05-15T08:04:48.629Z,50.00
2019-05-15T08:07:18.496Z,49.60
2019-05-15T08:09:48.603Z,49.20
2019-05-15T08:12:19.286Z,49.10
2019-05-15T08:14:50.872Z,49.80
2019-05-15T08:17:21.962Z,48.00
2019-05-15T08:19:51.837Z,47.80
2019-05-15T08:22:21.113Z,47.40
2019-05-15T08:24:50.713Z,47.50
2019-05-15T08:27:23.547Z,46.10
2019-05-15T08:29:51.535Z,44.00
2019-05-15T08:32:20.822Z,45.70
2019-05-15T08:34:50.458Z,43.80
2019-05-15T08:37:19.762Z,43.50
2019-05-15T08:39:49.364Z,44.60
2019-05-15T08:42:19.079Z,43.00
2019-05-15T08:44:48.910Z,41.80
2019-05-15T08:47:19.334Z,42.40
2019-05-15T08:49:49.011Z,41.20
2019-05-15T08:52:18.934Z,41.70
2019-05-15T08:54:48.747Z,41.00
2019-05-15T08:57:20.313Z,40.90
2019-05-15T08:59:49.194Z,41.20
2019-05-15T09:02:18.712Z,40.80
2019-05-15T09:04:48.709Z,42.00
2019-05-15T09:07:19.303Z,40.60
2019-05-15T09:09:48.853Z,42.50
2019-05-15T09:12:18.853Z,41.70
2019-05-15T09:14:48.832Z,41.60
2019-05-15T09:17:18.290Z,42.30
2019-05-15T09:19:48.187Z,41.80
2019-05-15T09:22:18.771Z,43.50
2019-05-15T09:24:49.012Z,43.60
2019-05-15T09:27:18.784Z,42.70
2019-05-15T09:29:48.565Z,42.00
2019-05-15T09:32:19.176Z,42.70
2019-05-15T09:34:54.822Z,43.40
2019-05-15T09:37:19.687Z,43.70
2019-05-15T09:39:49.143Z,44.00
2019-05-15T09:42:19.304Z,45.60
2019-05-15T09:44:48.719Z,44.10
2019-05-15T09:47:18.809Z,43.80
2019-05-15T09:49:48.615Z,45.80
2019-05-15T09:52:22.171Z,44.10
2019-05-15T09:54:49.434Z,44.50
2019-05-15T09:57:18.978Z,43.50
2019-05-15T09:59:48.922Z,44.50
2019-05-15T10:02:19.151Z,43.50
2019-05-15T10:05:04.161Z,43.90
2019-05-15T10:07:20.738Z,44.70
2019-05-15T10:09:52.345Z,43.90
2019-05-15T10:12:20.989Z,44.40
2019-05-15T10:14:50.545Z,43.80
2019-05-15T10:17:20.139Z,42.70
2019-05-15T10:19:49.753Z,43.00
2019-05-15T10:22:20.169Z,43.30
2019-05-15T10:24:50.959Z,43.30
2019-05-15T10:27:20.538Z,42.60
2019-05-15T10:29:49.818Z,43.20
2019-05-15T10:32:19.624Z,43.40
2019-05-15T10:34:48.945Z,43.10
2019-05-15T10:37:18.652Z,41.30
2019-05-15T10:39:52.141Z,42.70
2019-05-15T10:42:19.504Z,43.10
2019-05-15T10:44:48.944Z,41.90
2019-05-15T10:47:18.238Z,41.60
2019-05-15T10:49:48.467Z,40.20
2019-05-15T10:52:18.219Z,41.80
2019-05-15T10:54:47.528Z,43.20
2019-05-15T10:57:18.909Z,41.80
2019-05-15T10:59:48.597Z,41.80
2019-05-15T11:02:19.211Z,42.60
2019-05-15T11:04:48.994Z,42.60
2019-05-15T11:07:19.451Z,43.00
2019-05-15T11:09:50.423Z,43.10
2019-05-15T11:12:19.714Z,42.60
2019-05-15T11:14:49.316Z,41.50
2019-05-15T11:17:19.053Z,41.50
2019-05-15T11:19:49.822Z,43.70
2019-05-15T11:22:19.422Z,41.00
2019-05-15T11:24:52.294Z,41.80
2019-05-15T11:27:19.717Z,43.00
2019-05-15T11:29:49.001Z,44.30
2019-05-15T11:32:18.734Z,40.60
2019-05-15T11:34:49.254Z,42.80
2019-05-15T11:37:19.036Z,42.70
2019-05-15T11:39:48.854Z,41.50
2019-05-15T11:42:20.312Z,42.90
2019-05-15T11:44:53.205Z,43.00
2019-05-15T11:47:21.523Z,40.90
2019-05-15T11:49:50.790Z,41.40
2019-05-15T11:52:20.073Z,42.70
2019-05-15T11:54:49.659Z,42.60
2019-05-15T11:57:20.113Z,42.10
2019-05-15T11:59:55.403Z,43.10
2019-05-15T12:02:20.756Z,43.50
2019-05-15T12:04:50.109Z,41.70
2019-05-15T12:07:19.388Z,41.50
2019-05-15T12:09:48.995Z,41.60
2019-05-15T12:12:18.279Z,42.50
2019-05-15T12:14:49.422Z,43.50
2019-05-15T12:17:19.358Z,44.40
2019-05-15T12:19:54.920Z,44.30
2019-05-15T12:22:19.621Z,44.30
2019-05-15T12:24:50.168Z,45.60
2019-05-15T12:27:19.647Z,45.10
2019-05-15T12:29:49.413Z,44.40
2019-05-15T12:34:50.090Z,45.70
2019-05-15T12:37:19.860Z,44.90
2019-05-15T12:39:23.745Z,46.50
2019-05-15T12:59:59.427Z,46.70
2019-05-15T13:02:28.705Z,47.80
2019-05-15T13:04:57.985Z,47.10
2019-05-15T13:07:28.540Z,48.10
2019-05-15T13:09:58.087Z,47.70
2019-05-15T13:12:28.838Z,46.90
2019-05-15T13:14:59.043Z,47.00
2019-05-15T13:17:29.505Z,46.40
2019-05-15T13:19:58.846Z,47.90
2019-05-15T13:22:28.959Z,49.30
2019-05-15T13:24:58.838Z,47.00
2019-05-15T13:27:28.383Z,46.80
2019-05-15T13:29:58.347Z,47.40
2019-05-15T13:32:28.460Z,48.00
2019-05-15T13:34:59.439Z,47.70
2019-05-15T13:37:30.908Z,48.70
2019-05-15T13:40:01.777Z,47.50
2019-05-15T13:42:31.322Z,48.60
2019-05-15T13:45:00.608Z,49.00
2019-05-15T13:47:29.897Z,48.90
2019-05-15T13:49:59.433Z,49.40
2019-05-15T13:52:28.731Z,48.50
2019-05-15T13:54:58.001Z,49.30
2019-05-15T13:57:29.661Z,47.80
2019-05-15T13:59:58.931Z,48.20
2019-05-15T14:02:28.704Z,49.10
2019-05-15T14:04:58.409Z,49.30
2019-05-15T14:07:33.116Z,48.80
2019-05-15T14:09:59.919Z,48.60
2019-05-15T14:12:29.325Z,49.60
2019-05-15T14:14:58.891Z,48.20
2019-05-15T14:17:28.364Z,48.50
2019-05-15T14:19:58.718Z,48.60
2019-05-15T14:22:28.334Z,49.00
2019-05-15T14:24:58.376Z,48.50
2019-05-15T14:27:28.981Z,48.30
2019-05-15T14:29:59.205Z,48.80
2019-05-15T14:32:37.730Z,49.10
2019-05-15T14:34:59.529Z,48.30
2019-05-15T14:37:29.154Z,49.40
2019-05-15T14:39:58.426Z,48.90
2019-05-15T14:42:29.284Z,48.00
2019-05-15T14:44:59.323Z,49.00
2019-05-15T14:47:29.596Z,49.20
2019-05-15T14:50:00.097Z,49.60
2019-05-15T14:52:29.673Z,49.40
2019-05-15T14:54:59.266Z,48.80
2019-05-15T14:57:28.827Z,49.40
2019-05-15T14:59:58.391Z,48.80
2019-05-15T15:02:27.670Z,47.90
2019-05-15T15:04:59.443Z,48.20
2019-05-15T15:07:28.545Z,49.50
2019-05-15T15:09:58.274Z,49.10
2019-05-15T15:12:28.337Z,49.60
2019-05-15T15:14:57.940Z,49.90
2019-05-15T15:17:28.881Z,50.20
2019-05-15T15:20:00.229Z,50.30
2019-05-15T15:22:29.482Z,50.50
2019-05-15T15:24:59.844Z,49.40
2019-05-15T15:27:29.247Z,50.30
2019-05-15T15:29:58.531Z,50.40
2019-05-15T15:32:28.659Z,50.00
2019-05-15T15:34:58.679Z,49.50
2019-05-15T15:37:28.839Z,47.50
2019-05-15T15:39:58.790Z,48.10
2019-05-15T15:42:28.700Z,47.80
2019-05-15T15:44:58.230Z,48.60
2019-05-15T15:47:28.286Z,49.30
2019-05-15T15:49:58.469Z,49.20
2019-05-15T15:52:28.912Z,48.80
2019-05-15T15:54:58.434Z,48.90
2019-05-15T15:57:28.545Z,51.10
2019-05-15T15:59:58.061Z,50.50
2019-05-15T16:02:28.103Z,50.00
2019-05-15T16:04:58.942Z,49.50
2019-05-15T16:07:28.413Z,50.40
2019-05-15T16:09:58.884Z,49.40
2019-05-15T16:12:30.344Z,50.50
2019-05-15T16:14:59.649Z,50.90
2019-05-15T16:17:29.248Z,49.70
2019-05-15T16:19:58.875Z,50.40
2019-05-15T16:22:28.878Z,49.90
2019-05-15T16:24:58.781Z,50.70
2019-05-15T16:27:29.181Z,50.50
2019-05-15T16:29:58.835Z,49.50
2019-05-15T16:32:28.966Z,50.60
2019-05-15T16:34:58.740Z,50.50
2019-05-15T16:37:28.319Z,50.50
2019-05-15T16:40:00.042Z,50.30
2019-05-15T16:42:28.866Z,51.10
2019-05-15T16:44:59.296Z,50.40
2019-05-15T16:47:28.854Z,51.00
2019-05-15T16:49:58.458Z,51.00
2019-05-15T16:52:30.887Z,50.50
2019-05-15T16:54:59.515Z,50.20
2019-05-15T16:57:28.802Z,51.00
2019-05-15T16:59:58.738Z,50.20
2019-05-15T17:02:28.357Z,51.00
2019-05-15T17:04:57.750Z,50.30
2019-05-15T17:07:28.986Z,50.50
2019-05-15T17:09:58.696Z,50.70
2019-05-15T17:12:28.117Z,50.90
2019-05-15T17:14:58.459Z,50.50
2019-05-15T17:17:27.875Z,51.10
2019-05-15T17:19:57.972Z,51.10
2019-05-15T17:22:28.883Z,51.40
2019-05-15T17:24:58.446Z,51.30
2019-05-15T17:27:29.233Z,51.20
2019-05-15T17:29:58.850Z,51.40
2019-05-15T17:32:29.067Z,51.00
2019-05-15T17:34:59.599Z,51.70
2019-05-15T17:37:29.184Z,51.00
2019-05-15T17:39:59.020Z,51.50
2019-05-15T17:42:29.042Z,51.40
2019-05-15T17:44:58.382Z,51.30
2019-05-15T17:47:28.572Z,51.90
2019-05-15T17:49:58.846Z,51.70
2019-05-15T17:52:28.992Z,51.90
2019-05-15T17:54:59.241Z,52.50
2019-05-15T17:57:29.251Z,52.70
2019-05-15T17:59:59.103Z,52.20
2019-05-15T18:02:28.753Z,52.20
2019-05-15T18:04:59.513Z,52.00
2019-05-15T18:07:29.516Z,53.10
2019-05-15T18:09:59.214Z,53.00
2019-05-15T18:12:29.383Z,53.50
2019-05-15T18:14:59.063Z,53.50
2019-05-15T18:17:28.345Z,53.30
2019-05-15T18:19:58.061Z,53.20
2019-05-15T18:22:27.802Z,53.60
2019-05-15T18:24:58.102Z,53.30
2019-05-15T18:27:27.569Z,53.80
2019-05-15T18:29:58.435Z,55.10
2019-05-15T18:32:28.666Z,54.90
2019-05-15T18:34:59.362Z,55.10
2019-05-15T18:37:29.031Z,54.90
2019-05-15T18:40:05.337Z,55.80
2019-05-15T18:42:29.534Z,55.90
2019-05-15T18:44:58.820Z,56.00
2019-05-15T18:47:31.040Z,56.30
2019-05-15T18:50:06.084Z,56.20
2019-05-15T18:52:31.068Z,56.00
2019-05-15T18:55:00.675Z,56.10
2019-05-15T18:57:31.142Z,55.90
2019-05-15T19:00:00.915Z,55.60
2019-05-15T19:02:30.305Z,56.10
2019-05-15T19:04:59.579Z,55.90
2019-05-15T19:07:28.965Z,56.90
2019-05-15T19:09:58.240Z,57.20
2019-05-15T19:12:28.661Z,57.60
2019-05-15T19:14:58.695Z,57.70
2019-05-15T19:17:30.365Z,57.90
2019-05-15T19:19:59.514Z,57.40
2019-05-15T19:22:28.818Z,57.80
2019-05-15T19:24:58.733Z,57.90
2019-05-15T19:27:28.205Z,58.40
2019-05-15T19:29:59.078Z,57.80
2019-05-15T19:32:28.891Z,57.50
2019-05-15T19:34:58.844Z,58.20
2019-05-15T19:37:29.398Z,58.10
2019-05-15T19:39:59.055Z,59.20
2019-05-15T19:42:28.654Z,60.00
2019-05-15T19:44:58.969Z,60.50
2019-05-15T19:47:28.669Z,61.20
2019-05-15T19:49:58.187Z,60.80
2019-05-15T19:52:28.367Z,61.70
2019-05-15T19:54:58.027Z,60.20
2019-05-15T19:57:28.044Z,60.30
2019-05-15T19:59:58.155Z,60.80
2019-05-15T20:02:28.726Z,61.30
2019-05-15T20:04:59.343Z,61.20
2019-05-15T20:07:28.823Z,60.80
2019-05-15T20:09:58.522Z,61.40
2019-05-15T20:12:28.078Z,61.10
2019-05-15T20:14:58.379Z,62.10
2019-05-15T20:17:27.850Z,62.40
2019-05-15T20:19:58.130Z,62.40
2019-05-15T20:22:28.514Z,61.20
2019-05-15T20:24:58.823Z,61.50
2019-05-15T20:27:28.527Z,61.40
2019-05-15T20:29:57.877Z,60.90
2019-05-15T20:32:27.861Z,61.00
2019-05-15T20:34:57.849Z,61.50
2019-05-15T20:37:28.884Z,62.10
2019-05-15T20:39:59.573Z,61.80
2019-05-15T20:42:29.121Z,61.80
2019-05-15T20:44:58.677Z,61.90
2019-05-15T20:47:28.155Z,62.00
2019-05-15T20:49:57.601Z,62.20
2019-05-15T20:52:28.561Z,62.40
2019-05-15T20:54:59.360Z,62.10
2019-05-15T20:57:28.821Z,62.60
2019-05-15T20:59:58.766Z,63.30
2019-05-15T21:02:28.977Z,64.00
2019-05-15T21:05:00.763Z,64.20
2019-05-15T21:07:38.671Z,64.00
2019-05-15T21:10:00.860Z,64.80
2019-05-15T21:12:30.218Z,65.30
2019-05-15T21:14:59.777Z,64.70
2019-05-15T21:17:29.050Z,64.10
2019-05-15T21:20:01.091Z,64.30
2019-05-15T21:22:29.739Z,66.00
2019-05-15T21:24:59.148Z,67.00
2019-05-15T21:27:32.534Z,65.30
2019-05-15T21:29:59.701Z,65.60
2019-05-15T21:32:29.250Z,65.40
2019-05-15T21:34:58.526Z,65.60
2019-05-15T21:37:30.426Z,66.10
2019-05-15T21:39:59.378Z,67.20
2019-05-15T21:42:28.661Z,67.40
2019-05-15T21:44:58.264Z,67.00
2019-05-15T21:47:28.130Z,65.60
2019-05-15T21:49:57.509Z,68.10
2019-05-15T21:52:28.897Z,66.10
2019-05-15T21:54:59.433Z,66.10
2019-05-15T21:57:35.954Z,65.90
2019-05-15T22:00:00.725Z,66.20
2019-05-15T22:02:30.537Z,66.50
2019-05-15T22:05:00.066Z,67.40
2019-05-15T22:07:29.528Z,67.70
2019-05-15T22:09:58.789Z,67.70
2019-05-15T22:12:28.600Z,67.90
2019-05-15T22:14:58.395Z,68.40
2019-05-15T22:17:29.306Z,69.00
2019-05-15T22:19:59.061Z,69.30
2019-05-15T22:22:28.570Z,69.60
2019-05-15T22:24:58.268Z,69.80
2019-05-15T22:27:28.948Z,69.80
2019-05-15T22:29:58.854Z,70.10
2019-05-15T22:32:29.128Z,70.70
2019-05-15T22:35:07.038Z,70.80
2019-05-15T22:37:29.994Z,71.60
2019-05-15T22:40:00.828Z,72.60
2019-05-15T22:42:31.763Z,71.60
2019-05-15T22:45:01.242Z,72.10
2019-05-15T22:47:30.519Z,71.90
2019-05-15T22:50:00.181Z,71.30
2019-05-15T22:52:29.541Z,70.40
2019-05-15T22:54:58.824Z,71.90
2019-05-15T22:57:28.144Z,71.60
2019-05-15T22:59:58.139Z,70.90
2019-05-15T23:02:27.690Z,73.10
2019-05-15T23:04:57.223Z,73.60
2019-05-15T23:07:28.151Z,74.20
2019-05-15T23:09:58.315Z,74.20
2019-05-15T23:12:28.728Z,74.10
2019-05-15T23:14:58.137Z,73.50
2019-05-15T23:17:28.634Z,74.70
2019-05-15T23:19:58.266Z,75.10
2019-05-15T23:22:28.055Z,75.30
2019-05-15T23:24:58.582Z,75.50
2019-05-15T23:27:28.734Z,75.70
2019-05-15T23:29:58.516Z,75.90
2019-05-15T23:32:28.880Z,75.70
2019-05-15T23:34:58.571Z,76.20
2019-05-15T23:37:28.118Z,76.50
2019-05-15T23:39:57.976Z,76.70
2019-05-15T23:42:29.267Z,76.70
2019-05-15T23:44:59.133Z,76.20
2019-05-15T23:47:28.668Z,76.50
2019-05-15T23:49:58.067Z,75.80
2019-05-15T23:52:27.649Z,75.20
2019-05-15T23:54:58.855Z,75.00
2019-05-15T23:57:28.653Z,75.00
2019-05-15T23:59:58.057Z,75.60
